Řízení letového provozu České republiky
OPMET data - Ceska Republika Aktualizace: 13.11.2019 19:10:26  UTC
SIGMET / AIRMET - NIL
Warning / Vystraha - NIL
AIREP - NIL
REG QNH
REGIONAL QNH FORECAST ISSUED 2019-11-13 17:43 AREA VALID FM/TL QNH/HPA/ : LKAA 131800/132100 1000 =
 
METAR / SPECI
METAR LKBC 131900Z AUTO 22003KT 9000 FEW017 SCT052 OVC094 02/01 Q1005=
METAR LKCV 131900Z 24005KT 9999 -RA BKN014 OVC040 02/02 Q1005 NOSIG RMK GRN GRN=
METAR LKKB 131900Z 20006KT 9999 -RA FEW006 SCT012 OVC042 03/03 Q1005 NOSIG RMK BLU BLU=
METAR LKKU NIL
METAR LKKV 131900Z VRB02KT CAVOK 00/M00 Q1004 RMK REG QNH 1000=
SPECI LKLN 131907Z AUTO 00000KT 4100 ///////// 01/01 Q1006=
METAR LKMT 131900Z 06004KT 9999 -RA OVC011 04/03 Q1004 NOSIG RMK REG QNH 1000=
METAR LKNA 131900Z 29012KT 9999 -RA SCT007 OVC070 02/02 Q1004 NOSIG RMK BLU BLU=
METAR LKPD 131900Z 25009KT 8000 -RA BKN007 OVC014 02/02 Q1005 NOSIG RMK GRN GRN=
METAR LKPJ 131900Z AUTO 27006KT 9999 -RA OVC023 ///// Q////=
SPECI LKPR 131906Z 21009KT 9999 FEW005 SCT009 02/02 Q1005 RMK REG QNH 1000=
METAR COR LKTB 131900Z 29011KT 9999 -RA FEW012 04/02 Q1004 NOSIG RMK REG QNH 1000=
METAR LKVO NIL
TAF
TAF LKBC NIL
TAF LKCV 131700Z 1318/1418 25006KT 7000 -RA BKN008      TEMPO 1318/1321 3000 RASN BKN004      BECMG 1321/1323 12006KT CAVOK      TEMPO 1402/1409 4000 BR      PROB40 TEMPO 1403/1408 VRB02KT 0400 FZFG VV002      BECMG 1414/1416 9999 BKN012=
TAF LKKB 131700Z 1318/1418 27004KT 9999 SCT012 BKN025      TEMPO 1318/1321 6000 RA SCT008 BKN010      BECMG 1319/1321 20004KT      BECMG 1400/1402 CAVOK      TEMPO 1402/1409 3000 BR      PROB30 TEMPO 1403/1408 0400 MIFG=
TAF LKKU NIL
TAF LKKV 131700Z 1318/1500 VRB02KT 9999 SCT020 BKN040      TEMPO 1318/1410 BKN010      PROB30 TEMPO 1318/1409 4000 BR BKN004      BECMG 1410/1412 11008KT 9999 SCT025      TEMPO 1416/1500 5000 RASN BKN009=
TAF LKLN NIL
TAF LKMT 131700Z 1318/1500 03006KT 5000 BR BKN012      TEMPO 1318/1408 3000 RA BR BKN007      PROB30 TEMPO 1318/1407 1200 BR BKN005      BECMG 1408/1410 9999 BKN040      TEMPO 1410/1500 7000 BKN020=
TAF LKNA 131700Z 1318/1418 28010KT 9999 BKN008 OVC015      TEMPO 1318/1400 5000 RA BR BKN004 OVC008      PROB30 TEMPO 1318/1400 3000 -RASN BKN004 OVC006      TEMPO 1400/1406 2000 BR SCT005      BECMG 1402/1404 15006KT 0400 FZFG VV001      BECMG 1410/1412 3000 BR OVC003      BECMG 1414/1416 8000 BKN010=
TAF LKPD 131700Z 1318/1418 27005KT 8000 RA BKN010 OVC025      TEMPO 1318/1323 2000 SNRA BKN004      BECMG 1400/1402 09005KT CAVOK      TEMPO 1403/1409 3000 BR      PROB30 TEMPO 1404/1408 0700 FZFG=
TAF LKPJ NIL
TAF LKPR 131700Z 1318/1500 27008KT 9999 BKN030      TEMPO 1318/1320 4000 RA BKN007      PROB30 TEMPO 1318/1320 1200 RASN BR BKN003      BECMG 1322/1402 9999 SCT030      BECMG 1402/1404 12008KT      TEMPO 1409/1500 BKN015=
TAF LKTB 131700Z 1318/1500 30008KT 8000 BKN015      TEMPO 1318/1400 4000 RA BR BKN005      BECMG 1400/1403 VRB02KT 2000 MIFG SCT002      TEMPO 1403/1409 1200 BR OVC002      PROB30 TEMPO 1404/1409 0400 FZFG BKN001      BECMG 1409/1411 11008KT 6000 BKN010      PROB30 TEMPO 1411/1416 3000 RA BR BKN006      BECMG 1416/1418 08005KT 9999 SCT030=
TAF LKVO NIL